Sunday, May 27, 2018, 3:18 PM GMT
Back to Local

CWWZ, Port Weller, Ont.

Location: , , Canada Lat: 43.25
Local Time: 3:18 PM GMT (15:18 GMT) Lon: -79.217
Time Zone: GMT Elev: 259 ft

Show me the last for .
Show Coded

Time T Td Feel RH Dir Speed Gust Alt SLP Vis Weather Sky Remarks
2018-05-27 15:00 60 55 - 84 90° 5 - - 29.92 0 None
2018-05-27 14:00 58 53 - 82 350° 2 - - 29.93 0 None
2018-05-27 13:00 59 53 - 82 270° 6 - - 29.93 0 None
2018-05-27 12:00 56 54 - 90 260° 3 - - 29.92 0 None
2018-05-27 11:00 56 54 - 92 270° 6 - - 29.90 0 None
2018-05-27 10:00 56 54 - 94 - Calm - - 29.88 0 None
2018-05-27 09:00 57 55 - 93 180° 3 - - 29.87 0 None
2018-05-27 08:00 55 53 - 93 80° 8 - - 29.87 0 None
2018-05-27 07:00 56 54 - 92 60° 3 - - 29.87 0 None
2018-05-27 06:00 60 57 - 87 330° 7 - - 29.85 0 None
2018-05-27 05:00 66 59 - 79 160° 3 - - 29.85 0 None
2018-05-27 04:00 66 58 - 76 140° 8 - - 29.85 0 None
2018-05-27 03:00 67 56 - 69 150° 9 - - 29.86 0 None
2018-05-27 02:00 66 58 - 74 130° 6 - - 29.85 0 None
2018-05-27 01:00 64 58 - 80 90° 14 - - 29.83 0 None
2018-05-27 00:00 62 56 - 80 90° 12 - - 29.83 0 Peak wind: 19 mph (17 kts) from 10° at 19 min
2018-05-26 23:00 76 60 79 56 220° 2 - - 29.79 0 None
2018-05-26 22:00 74 59 77 58 210° 6 - - 29.77 0 None
2018-05-26 21:00 76 60 78 59 220° 6 - - 29.77 0 None
2018-05-26 20:00 71 60 76 68 - Calm - - 29.77 0 None
2018-05-26 19:00 67 57 - 71 40° 7 - - 29.80 0 None
2018-05-26 18:00 73 60 77 65 190° 3 - - 29.79 0 None
2018-05-26 17:00 73 62 77 68 200° 1 - - 29.80 0 None
2018-05-26 16:00 72 56 76 57 280° 3 - - 29.80 0 None

Support USWX by starting your Amazon purchase here.